Time;durP1;ratioP1;P1;durP2;ratioP2;P2;SDS_P1;SDS_P2;PMS_P1;PMS_P2;Temp;Humidity;BMP_temperature;BMP_pressure;BME280_temperature;BME280_humidity;BME280_pressure;Samples;Min_cycle;Max_cycle;Signal;HPM_P1;HPM_P2
2022/09/30 00:01:15;;;;;;;11.43;8.10;;;10.30;99.90;;;;;;4208248;28;20175;-89
2022/09/30 00:03:16;;;;;;;15.65;8.80;;;10.30;99.90;;;;;;4195658;28;20174;-96
2022/09/30 00:05:17;;;;;;;11.73;8.63;;;10.30;99.90;;;;;;4192042;28;20218;-89
2022/09/30 00:07:17;;;;;;;15.93;9.20;;;10.40;99.90;;;;;;4194141;28;20176;-89
2022/09/30 00:09:20;;;;;;;11.27;8.43;;;10.30;99.90;;;;;;4192250;28;20195;-96
2022/09/30 00:11:27;;;;;;;14.70;8.32;;;10.30;99.90;;;;;;4193514;28;20167;-96
2022/09/30 00:13:28;;;;;;;13.13;9.35;;;10.30;99.90;;;;;;4190390;28;20201;-89
2022/09/30 00:15:29;;;;;;;14.50;8.73;;;10.20;99.90;;;;;;4190021;28;20206;-89
2022/09/30 00:17:30;;;;;;;17.20;9.27;;;10.10;99.90;;;;;;4191072;28;20167;-89
2022/09/30 00:19:31;;;;;;;15.10;9.15;;;10.10;99.90;;;;;;4196055;28;20176;-90
2022/09/30 00:21:35;;;;;;;13.65;9.18;;;10.00;99.90;;;;;;4211550;28;20551;-89
2022/09/30 00:23:37;;;;;;;15.50;9.93;;;10.00;99.90;;;;;;4193943;28;20251;-89
2022/09/30 00:25:38;;;;;;;12.27;9.68;;;10.00;99.90;;;;;;4192693;28;20658;-92
2022/09/30 00:27:39;;;;;;;17.67;10.43;;;9.90;99.90;;;;;;4208637;28;20192;-91
2022/09/30 00:29:39;;;;;;;16.35;8.73;;;10.00;99.90;;;;;;4206728;28;20206;-96
2022/09/30 00:31:40;;;;;;;13.70;9.43;;;10.00;99.90;;;;;;4207111;28;20155;-93
2022/09/30 00:33:42;;;;;;;14.70;10.27;;;10.10;99.90;;;;;;4194842;28;20187;-89
2022/09/30 00:35:46;;;;;;;15.37;10.90;;;10.20;99.90;;;;;;4210542;28;20143;-89
2022/09/30 00:37:46;;;;;;;11.05;8.93;;;10.20;99.90;;;;;;4209693;28;20186;-89
2022/09/30 00:39:47;;;;;;;13.43;9.45;;;10.10;99.90;;;;;;4210001;28;20195;-89
2022/09/30 00:41:52;;;;;;;14.77;9.25;;;10.10;99.90;;;;;;4194607;28;20194;-95
2022/09/30 00:43:53;;;;;;;12.17;9.30;;;10.20;99.90;;;;;;4191176;28;20218;-89
2022/09/30 00:45:58;;;;;;;12.43;9.30;;;10.20;99.90;;;;;;4210284;28;20190;-89
2022/09/30 00:48:11;;;;;;;14.03;8.90;;;10.10;99.90;;;;;;4222091;28;20154;-89
2022/09/30 00:50:30;;;;;;;15.43;10.00;;;10.10;99.90;;;;;;4194433;28;20222;-94
2022/09/30 00:52:35;;;;;;;13.63;9.88;;;10.10;99.90;;;;;;4208034;28;20182;-94
2022/09/30 00:54:35;;;;;;;14.45;10.35;;;10.10;99.90;;;;;;4192426;28;20186;-89
2022/09/30 00:56:44;;;;;;;17.23;9.90;;;10.00;99.90;;;;;;4191439;28;20266;-89
2022/09/30 00:58:51;;;;;;;12.55;9.98;;;10.00;99.90;;;;;;4185302;28;20203;-89
2022/09/30 01:00:52;;;;;;;19.65;10.25;;;10.00;99.90;;;;;;4208812;28;20206;-89
2022/09/30 01:02:53;;;;;;;14.93;10.70;;;10.00;99.90;;;;;;4208972;28;20191;-89
2022/09/30 01:04:55;;;;;;;15.73;10.53;;;10.00;99.90;;;;;;4208448;28;20211;-89
2022/09/30 01:07:03;;;;;;;15.17;10.50;;;10.00;99.90;;;;;;4208461;28;20159;-90
2022/09/30 01:09:04;;;;;;;15.10;9.83;;;10.00;99.90;;;;;;4204321;28;20293;-89
2022/09/30 01:11:05;;;;;;;13.25;10.20;;;10.00;99.90;;;;;;4205660;28;20175;-89
2022/09/30 01:13:06;;;;;;;14.73;10.63;;;10.00;99.90;;;;;;4207323;28;20182;-89
2022/09/30 01:15:08;;;;;;;16.83;10.63;;;10.00;99.90;;;;;;4204888;28;20178;-89
2022/09/30 01:17:44;;;;;;;16.00;9.90;;;9.90;99.90;;;;;;4208244;28;20213;-89
2022/09/30 01:20:09;;;;;;;13.90;10.00;;;9.90;99.90;;;;;;4191536;28;20666;-89
2022/09/30 01:22:44;;;;;;;14.97;10.77;;;9.80;99.90;;;;;;4206887;28;20165;-96
2022/09/30 01:25:18;;;;;;;18.60;10.47;;;9.80;99.90;;;;;;4189200;28;20229;-95
2022/09/30 01:28:12;;;;;;;15.43;9.97;;;9.80;99.90;;;;;;4186959;28;20191;-96
2022/09/30 01:30:15;;;;;;;12.40;9.73;;;9.80;99.90;;;;;;4141545;28;20198;-89
2022/09/30 01:32:30;;;;;;;19.43;9.47;;;9.70;99.90;;;;;;4176648;28;20211;-96
2022/09/30 01:35:10;;;;;;;13.97;9.87;;;9.60;99.90;;;;;;4189506;28;20182;-89
2022/09/30 01:37:42;;;;;;;14.70;9.50;;;9.60;99.90;;;;;;4187576;28;20182;-89
2022/09/30 01:39:50;;;;;;;12.50;9.20;;;9.50;99.90;;;;;;4206838;28;20237;-89
2022/09/30 01:41:53;;;;;;;21.10;10.70;;;9.50;99.90;;;;;;4209216;28;20248;-89
2022/09/30 01:44:01;;;;;;;14.13;9.50;;;9.50;99.90;;;;;;4189802;28;20214;-89
2022/09/30 01:46:22;;;;;;;12.40;9.73;;;9.60;99.90;;;;;;4191596;28;20194;-90
2022/09/30 01:48:36;;;;;;;14.47;10.50;;;9.60;99.90;;;;;;4210604;28;20178;-89
2022/09/30 01:51:01;;;;;;;13.87;10.27;;;9.60;99.90;;;;;;4191569;28;20203;-94
2022/09/30 01:53:16;;;;;;;14.83;10.00;;;9.60;99.90;;;;;;4209487;28;20230;-95
2022/09/30 01:55:37;;;;;;;14.60;9.30;;;9.60;99.90;;;;;;4189638;28;20187;-96
2022/09/30 01:58:17;;;;;;;13.30;9.40;;;9.60;99.90;;;;;;4192985;28;20171;-89
2022/09/30 02:00:20;;;;;;;16.40;9.30;;;9.50;99.90;;;;;;4211445;28;20251;-90
2022/09/30 02:02:29;;;;;;;13.43;9.63;;;9.40;99.90;;;;;;4190413;28;20175;-93
2022/09/30 02:04:41;;;;;;;12.20;9.30;;;9.40;99.90;;;;;;4193345;28;20194;-94
2022/09/30 02:06:57;;;;;;;10.57;8.57;;;9.20;99.90;;;;;;4209891;28;20179;-89
2022/09/30 02:08:59;;;;;;;14.23;10.07;;;9.20;99.90;;;;;;4193115;28;20171;-94
2022/09/30 02:11:13;;;;;;;14.43;10.17;;;9.20;99.90;;;;;;4194988;28;20172;-90
2022/09/30 02:13:22;;;;;;;13.60;9.90;;;9.30;99.90;;;;;;4188782;28;20198;-89
2022/09/30 02:15:30;;;;;;;12.63;9.80;;;9.20;99.90;;;;;;4192856;28;20214;-90
2022/09/30 02:17:51;;;;;;;18.83;10.03;;;9.20;99.90;;;;;;4208047;28;20173;-89
2022/09/30 02:19:59;;;;;;;12.00;9.60;;;9.20;99.90;;;;;;4209446;28;20252;-96
2022/09/30 02:22:06;;;;;;;11.53;9.47;;;9.20;99.90;;;;;;4189313;28;20175;-89
2022/09/30 02:24:11;;;;;;;16.83;9.40;;;9.20;99.90;;;;;;4189562;28;20191;-96
2022/09/30 02:26:26;;;;;;;13.10;9.30;;;9.20;99.90;;;;;;4209089;28;20639;-96
2022/09/30 02:28:29;;;;;;;15.97;9.97;;;9.10;99.90;;;;;;4207123;28;20281;-95
2022/09/30 02:30:32;;;;;;;15.30;9.67;;;9.10;99.90;;;;;;4207674;28;20179;-89
2022/09/30 02:32:43;;;;;;;18.13;10.03;;;9.10;99.90;;;;;;4193170;28;20254;-90
2022/09/30 02:34:55;;;;;;;15.70;9.77;;;9.10;99.90;;;;;;4195614;28;20175;-90
2022/09/30 02:36:56;;;;;;;14.70;9.63;;;9.10;99.90;;;;;;4192100;28;20179;-88
2022/09/30 02:39:04;;;;;;;14.07;10.10;;;9.00;99.90;;;;;;4209309;28;20155;-89
2022/09/30 02:41:13;;;;;;;14.17;10.07;;;9.00;99.90;;;;;;4209467;28;20209;-90
2022/09/30 02:43:17;;;;;;;12.90;9.50;;;9.00;99.90;;;;;;4207076;28;20186;-89
2022/09/30 02:45:22;;;;;;;16.53;10.23;;;9.10;99.90;;;;;;4211622;28;20215;-92
2022/09/30 02:47:37;;;;;;;15.10;10.17;;;9.10;99.90;;;;;;4209427;28;20662;-89
2022/09/30 02:49:47;;;;;;;13.60;9.63;;;9.00;99.90;;;;;;4209726;28;20199;-90
2022/09/30 02:52:31;;;;;;;12.97;9.90;;;9.00;99.90;;;;;;4196185;28;20261;-90
2022/09/30 02:54:46;;;;;;;15.40;10.57;;;9.00;99.90;;;;;;4194515;28;20190;-90
2022/09/30 02:56:58;;;;;;;17.10;9.97;;;9.00;99.90;;;;;;4211283;28;20166;-89
2022/09/30 02:58:58;;;;;;;14.90;10.67;;;9.00;99.90;;;;;;4209992;28;20171;-90
2022/09/30 03:00:59;;;;;;;12.52;9.90;;;9.00;99.90;;;;;;4208890;28;20181;-89
2022/09/30 03:03:06;;;;;;;14.93;10.90;;;9.10;99.90;;;;;;4207794;28;20663;-96
2022/09/30 03:05:09;;;;;;;12.73;9.87;;;9.20;99.90;;;;;;4191442;28;20204;-96
2022/09/30 03:07:10;;;;;;;16.27;10.30;;;9.10;99.90;;;;;;4188046;28;20242;-88
2022/09/30 03:09:10;;;;;;;14.17;9.70;;;9.10;99.90;;;;;;4187291;28;20199;-93
2022/09/30 03:11:20;;;;;;;15.17;10.77;;;9.10;99.90;;;;;;4205757;28;20153;-90
2022/09/30 03:13:39;;;;;;;13.77;10.60;;;9.10;99.90;;;;;;4206873;28;20637;-95
2022/09/30 03:16:10;;;;;;;14.10;10.43;;;9.10;99.90;;;;;;4202679;28;20179;-93
2022/09/30 03:18:55;;;;;;;14.93;11.23;;;9.10;99.90;;;;;;4217166;28;20173;-89
2022/09/30 03:21:01;;;;;;;17.10;10.13;;;9.00;99.90;;;;;;4152006;28;20191;-92
2022/09/30 03:23:28;;;;;;;14.77;10.87;;;9.00;99.90;;;;;;4150777;28;20181;-89
2022/09/30 03:25:55;;;;;;;15.73;10.43;;;9.00;99.90;;;;;;4168444;28;20617;-89
2022/09/30 03:28:08;;;;;;;16.83;10.03;;;8.90;99.90;;;;;;4188110;28;20207;-88
2022/09/30 03:30:15;;;;;;;14.03;9.37;;;8.80;99.90;;;;;;4183988;28;20582;-96
2022/09/30 03:32:34;;;;;;;14.73;10.47;;;8.80;99.90;;;;;;4185960;28;20179;-88
2022/09/30 03:34:56;;;;;;;13.47;10.17;;;8.70;99.90;;;;;;4205657;28;20269;-96
2022/09/30 03:37:18;;;;;;;14.43;10.03;;;8.80;99.90;;;;;;4203476;28;20175;-96
2022/09/30 03:39:31;;;;;;;15.30;9.97;;;8.80;99.90;;;;;;4201227;28;20278;-92
2022/09/30 03:41:31;;;;;;;15.53;11.07;;;8.80;99.90;;;;;;4185073;28;20173;-88
2022/09/30 03:44:00;;;;;;;15.97;11.10;;;8.70;99.90;;;;;;4185592;28;20190;-94
2022/09/30 03:46:08;;;;;;;14.33;10.67;;;8.70;99.90;;;;;;4200574;28;20229;-89
2022/09/30 03:48:11;;;;;;;15.33;11.53;;;8.70;99.90;;;;;;4185836;28;20182;-89
2022/09/30 03:50:18;;;;;;;19.63;12.53;;;8.70;99.90;;;;;;4184903;28;20679;-93
2022/09/30 03:52:25;;;;;;;16.20;12.53;;;8.70;99.90;;;;;;4184306;28;20176;-93
2022/09/30 03:54:25;;;;;;;23.80;15.03;;;8.70;99.90;;;;;;4192583;28;20183;-93
2022/09/30 03:56:46;;;;;;;20.37;14.47;;;8.70;99.90;;;;;;4211492;28;20238;-93
2022/09/30 03:58:47;;;;;;;21.80;15.27;;;8.70;99.90;;;;;;4191180;28;20172;-96
2022/09/30 04:00:51;;;;;;;22.70;15.40;;;8.60;99.90;;;;;;4205782;28;20326;-96
2022/09/30 04:02:52;;;;;;;21.53;16.37;;;8.70;99.90;;;;;;4186573;28;20180;-95
2022/09/30 04:04:53;;;;;;;22.27;14.83;;;8.80;99.90;;;;;;4204089;28;20213;-89
2022/09/30 04:06:54;;;;;;;26.70;16.53;;;8.80;99.90;;;;;;4204610;28;20201;-89
2022/09/30 04:08:54;;;;;;;21.50;14.83;;;8.80;99.90;;;;;;4204006;28;20175;-91
2022/09/30 04:10:55;;;;;;;21.47;14.40;;;8.80;99.90;;;;;;4186484;28;20198;-90
2022/09/30 04:13:02;;;;;;;20.73;14.50;;;8.70;99.90;;;;;;4207858;28;20663;-90
2022/09/30 04:15:05;;;;;;;19.27;14.00;;;8.70;99.90;;;;;;4208898;28;20262;-90
2022/09/30 04:17:05;;;;;;;18.40;14.20;;;8.60;99.90;;;;;;4223403;28;20174;-90
2022/09/30 04:19:06;;;;;;;18.73;14.70;;;8.60;99.90;;;;;;4208782;28;20289;-89
2022/09/30 04:21:16;;;;;;;19.87;14.57;;;8.50;99.90;;;;;;4207875;28;20689;-89
2022/09/30 04:23:17;;;;;;;22.00;14.47;;;8.50;99.90;;;;;;4193348;28;20176;-89
2022/09/30 04:25:19;;;;;;;19.20;14.37;;;8.50;99.90;;;;;;4203006;28;20218;-90
2022/09/30 04:27:20;;;;;;;21.27;15.03;;;8.50;99.90;;;;;;4189328;28;20179;-89
2022/09/30 04:29:21;;;;;;;19.57;14.13;;;8.60;99.90;;;;;;4189279;28;20192;-90
2022/09/30 04:31:22;;;;;;;20.40;14.13;;;8.60;99.90;;;;;;4193182;28;20172;-92
2022/09/30 04:33:23;;;;;;;18.73;14.73;;;8.50;99.90;;;;;;4222693;28;20239;-88
2022/09/30 04:35:23;;;;;;;25.67;16.00;;;8.50;99.90;;;;;;4208195;28;20237;-89
2022/09/30 04:37:27;;;;;;;22.27;16.53;;;8.50;99.90;;;;;;4207724;28;20179;-89
2022/09/30 04:39:27;;;;;;;22.27;15.80;;;8.50;99.90;;;;;;4226648;28;20182;-89
2022/09/30 04:41:28;;;;;;;24.60;15.60;;;8.40;99.90;;;;;;4211438;28;20155;-89
2022/09/30 04:43:29;;;;;;;24.57;16.23;;;8.50;99.90;;;;;;4192967;28;20240;-89
2022/09/30 04:45:30;;;;;;;28.23;17.17;;;8.50;99.90;;;;;;4190805;28;20226;-89
2022/09/30 04:47:30;;;;;;;27.73;17.83;;;8.50;99.90;;;;;;4194361;28;20174;-95
2022/09/30 04:49:34;;;;;;;25.03;18.03;;;8.50;99.90;;;;;;4193564;28;20215;-89
2022/09/30 04:51:42;;;;;;;25.83;18.27;;;8.50;99.90;;;;;;4194932;28;20176;-89
2022/09/30 04:53:51;;;;;;;26.67;19.33;;;8.50;99.90;;;;;;4193696;28;20175;-89
2022/09/30 04:56:11;;;;;;;25.20;18.93;;;8.50;99.90;;;;;;4190048;28;20152;-89
2022/09/30 04:58:19;;;;;;;30.90;19.00;;;8.60;99.90;;;;;;4195848;28;20266;-90
2022/09/30 05:00:20;;;;;;;33.63;20.67;;;8.70;99.90;;;;;;4193290;28;20262;-90
2022/09/30 05:02:22;;;;;;;30.23;21.20;;;8.70;99.90;;;;;;4211199;28;20230;-89
2022/09/30 05:04:23;;;;;;;32.00;20.83;;;8.60;99.90;;;;;;4192717;28;20214;-90
2022/09/30 05:06:39;;;;;;;36.73;21.57;;;8.70;99.90;;;;;;4194669;28;20180;-90
2022/09/30 05:08:43;;;;;;;30.03;21.33;;;8.80;99.90;;;;;;4193997;28;20172;-90
2022/09/30 05:10:58;;;;;;;35.80;22.17;;;8.80;99.90;;;;;;4212491;28;20260;-90
2022/09/30 05:12:59;;;;;;;34.53;21.60;;;8.80;99.90;;;;;;4206850;28;20174;-89
2022/09/30 05:15:00;;;;;;;33.03;20.40;;;8.80;99.90;;;;;;4189962;28;20661;-90
2022/09/30 05:17:01;;;;;;;29.87;20.00;;;8.80;99.90;;;;;;4189476;28;20258;-89
2022/09/30 05:19:04;;;;;;;30.57;19.53;;;8.80;99.90;;;;;;4189714;28;20164;-88
2022/09/30 05:21:05;;;;;;;38.07;19.87;;;8.70;99.90;;;;;;4192219;28;20266;-90
2022/09/30 05:23:06;;;;;;;30.20;18.70;;;8.60;99.90;;;;;;4193420;28;20188;-89
2022/09/30 05:25:07;;;;;;;26.47;17.77;;;8.60;99.90;;;;;;4192834;28;20237;-89
2022/09/30 05:27:08;;;;;;;30.83;17.83;;;8.60;99.90;;;;;;4210723;28;20170;-89
2022/09/30 05:29:09;;;;;;;27.90;18.10;;;8.60;99.90;;;;;;4193788;28;20187;-89
2022/09/30 05:31:10;;;;;;;28.53;18.50;;;8.50;99.90;;;;;;4195493;28;20190;-91
2022/09/30 05:33:12;;;;;;;24.83;17.90;;;8.70;99.90;;;;;;4191056;28;20239;-90
2022/09/30 05:35:13;;;;;;;35.07;19.03;;;8.60;99.90;;;;;;4194612;28;20206;-90
2022/09/30 05:37:15;;;;;;;29.73;18.47;;;8.60;99.90;;;;;;4190703;28;20191;-89
2022/09/30 05:39:19;;;;;;;33.13;18.57;;;8.60;99.90;;;;;;4188917;28;20200;-89
2022/09/30 05:41:35;;;;;;;28.33;18.67;;;8.60;99.90;;;;;;4209577;28;20222;-90
2022/09/30 05:43:38;;;;;;;25.90;18.33;;;8.70;99.90;;;;;;4191042;28;20179;-90
2022/09/30 05:45:38;;;;;;;32.50;18.60;;;8.60;99.90;;;;;;4190382;28;20178;-90
2022/09/30 05:47:39;;;;;;;25.40;17.60;;;8.70;99.90;;;;;;4191552;28;20176;-90
2022/09/30 05:49:41;;;;;;;32.43;18.47;;;8.60;99.90;;;;;;4194445;28;20251;-90
2022/09/30 05:51:57;;;;;;;32.13;18.43;;;8.50;99.90;;;;;;4211553;28;20171;-90
2022/09/30 05:53:57;;;;;;;31.30;17.43;;;8.50;99.90;;;;;;4207546;28;20181;-90
2022/09/30 05:55:59;;;;;;;29.97;17.80;;;8.50;99.90;;;;;;4222783;28;20166;-88
2022/09/30 05:58:01;;;;;;;26.57;17.87;;;8.50;99.90;;;;;;4208361;28;20179;-90
2022/09/30 06:00:13;;;;;;;31.07;17.70;;;8.60;99.90;;;;;;4190694;22;20227;-90
2022/09/30 06:02:17;;;;;;;25.87;17.70;;;8.60;99.90;;;;;;4157413;28;20183;-90
2022/09/30 06:04:20;;;;;;;24.97;16.47;;;8.60;99.90;;;;;;4173086;28;20317;-90
2022/09/30 06:06:21;;;;;;;26.30;17.73;;;8.60;99.90;;;;;;4158673;28;20192;-89
2022/09/30 06:08:22;;;;;;;28.63;17.43;;;8.60;99.90;;;;;;4160763;28;20153;-89
2022/09/30 06:10:23;;;;;;;28.73;17.77;;;8.60;99.90;;;;;;4171695;28;20254;-89
2022/09/30 06:12:28;;;;;;;29.67;17.77;;;8.70;99.90;;;;;;4174026;28;20250;-90
2022/09/30 06:14:29;;;;;;;28.47;16.30;;;8.70;99.90;;;;;;4189685;28;20170;-90
2022/09/30 06:16:45;;;;;;;29.77;16.93;;;8.80;99.90;;;;;;4209544;28;20223;-89
2022/09/30 06:18:45;;;;;;;29.80;16.97;;;8.80;99.90;;;;;;4175084;28;20183;-91
2022/09/30 06:20:46;;;;;;;23.83;16.27;;;8.80;99.90;;;;;;4195601;28;20171;-92
2022/09/30 06:22:47;;;;;;;28.83;17.30;;;8.80;99.90;;;;;;4210434;28;20182;-90
2022/09/30 06:24:48;;;;;;;24.17;17.23;;;8.90;99.90;;;;;;4174343;28;20208;-93
2022/09/30 06:26:52;;;;;;;25.17;17.27;;;8.90;99.90;;;;;;4192531;28;20163;-90
2022/09/30 06:28:53;;;;;;;29.73;17.80;;;8.90;99.90;;;;;;4172117;28;20176;-90
2022/09/30 06:30:54;;;;;;;24.27;17.67;;;8.90;99.90;;;;;;4173684;28;20159;-90
2022/09/30 06:33:00;;;;;;;28.70;18.43;;;9.00;99.90;;;;;;4176049;28;20164;-89
2022/09/30 06:35:02;;;;;;;24.43;16.33;;;9.20;99.90;;;;;;4174175;28;20231;-90
2022/09/30 06:37:03;;;;;;;24.90;14.87;;;9.60;99.90;;;;;;4189056;28;20148;-90
2022/09/30 06:39:18;;;;;;;22.48;14.00;;;10.40;99.90;;;;;;4172377;28;20171;-89
2022/09/30 06:41:29;;;;;;;21.33;11.43;;;11.40;99.90;;;;;;4176384;28;20196;-90
2022/09/30 06:43:30;;;;;;;14.02;9.55;;;12.20;99.90;;;;;;4190387;28;20152;-89
2022/09/30 06:45:31;;;;;;;12.63;9.27;;;13.00;99.90;;;;;;4172623;28;20226;-90
2022/09/30 06:47:32;;;;;;;12.55;9.05;;;13.90;99.90;;;;;;4172945;28;20690;-89
2022/09/30 06:49:33;;;;;;;14.15;8.48;;;15.00;99.90;;;;;;4172809;28;20180;-89
2022/09/30 06:51:35;;;;;;;12.63;7.93;;;15.80;99.90;;;;;;4187595;28;20178;-90
2022/09/30 06:53:44;;;;;;;13.25;8.40;;;16.60;99.90;;;;;;4192540;28;20234;-90
2022/09/30 06:55:53;;;;;;;11.43;7.38;;;17.40;99.90;;;;;;4192463;28;20175;-89
2022/09/30 06:57:54;;;;;;;11.63;7.78;;;18.00;99.90;;;;;;4189471;28;20167;-91
2022/09/30 06:59:58;;;;;;;10.27;7.13;;;18.40;99.90;;;;;;4192362;28;20253;-89
2022/09/30 07:01:59;;;;;;;12.43;7.47;;;18.70;99.90;;;;;;4193149;28;20187;-90
2022/09/30 07:04:02;;;;;;;12.20;6.88;;;19.00;99.90;;;;;;4192738;28;20206;-90
2022/09/30 07:06:04;;;;;;;12.05;7.35;;;18.80;99.90;;;;;;4174862;28;20180;-95
2022/09/30 07:08:08;;;;;;;13.18;6.82;;;19.20;99.90;;;;;;4173385;28;20194;-90
2022/09/30 07:10:10;;;;;;;9.73;6.97;;;19.50;99.90;;;;;;4173359;28;20192;-91
2022/09/30 07:12:10;;;;;;;12.63;6.97;;;19.90;99.90;;;;;;4174898;28;20659;-90
2022/09/30 07:14:12;;;;;;;12.15;7.80;;;20.30;99.90;;;;;;4187474;28;20269;-90
2022/09/30 07:16:14;;;;;;;9.45;6.03;;;20.50;99.90;;;;;;4190172;28;20170;-91
2022/09/30 07:18:19;;;;;;;12.60;6.90;;;20.40;99.90;;;;;;4185909;28;20240;-91
2022/09/30 07:20:20;;;;;;;10.13;6.75;;;20.20;99.90;;;;;;4187450;28;20692;-96
2022/09/30 07:22:28;;;;;;;12.43;6.85;;;20.60;99.90;;;;;;4185987;28;20274;-95
2022/09/30 07:24:29;;;;;;;12.20;6.45;;;20.70;99.90;;;;;;4168002;28;20195;-90
2022/09/30 07:26:30;;;;;;;13.35;6.40;;;21.00;99.90;;;;;;4172628;28;20183;-91
2022/09/30 07:28:34;;;;;;;11.45;6.75;;;21.30;99.90;;;;;;4169331;28;20165;-88
2022/09/30 07:30:34;;;;;;;11.85;6.32;;;21.00;99.90;;;;;;4199468;28;20245;-87
2022/09/30 07:32:35;;;;;;;15.15;7.35;;;20.60;99.90;;;;;;4199098;28;20242;-88
2022/09/30 07:34:42;;;;;;;13.93;7.00;;;21.30;99.90;;;;;;4166289;28;20211;-88
2022/09/30 07:36:42;;;;;;;15.02;7.45;;;21.50;99.90;;;;;;4166850;28;20662;-89
2022/09/30 07:38:49;;;;;;;10.90;6.82;;;21.80;99.90;;;;;;4182227;28;20217;-95
2022/09/30 07:40:59;;;;;;;14.15;7.22;;;20.50;99.90;;;;;;4165979;28;20181;-88
2022/09/30 07:43:00;;;;;;;11.30;6.90;;;19.80;99.90;;;;;;4181757;28;20204;-88
2022/09/30 07:45:01;;;;;;;11.93;7.10;;;19.30;99.90;;;;;;4165610;28;20290;-88
2022/09/30 07:47:02;;;;;;;11.52;6.80;;;18.90;99.90;;;;;;4166137;28;20173;-88
2022/09/30 07:49:04;;;;;;;14.57;7.40;;;19.70;99.90;;;;;;4166406;28;20184;-91
2022/09/30 07:51:05;;;;;;;13.20;6.68;;;20.10;99.90;;;;;;4166518;28;20620;-93
2022/09/30 07:53:06;;;;;;;13.48;6.20;;;19.80;99.90;;;;;;4165162;28;20188;-88
2022/09/30 07:55:06;;;;;;;11.02;6.65;;;20.10;99.90;;;;;;4164897;28;20266;-89
2022/09/30 07:57:08;;;;;;;11.35;6.78;;;20.60;99.90;;;;;;4181050;28;20174;-88
2022/09/30 07:59:10;;;;;;;11.98;6.97;;;21.20;99.90;;;;;;4165851;28;20192;-87
2022/09/30 08:01:11;;;;;;;10.52;6.70;;;21.20;99.90;;;;;;4181874;28;20274;-94
2022/09/30 08:03:12;;;;;;;14.85;7.22;;;21.40;99.90;;;;;;4165401;28;20716;-94
2022/09/30 08:05:12;;;;;;;21.60;6.90;;;21.70;99.90;;;;;;4165449;28;20684;-94
2022/09/30 08:07:15;;;;;;;10.10;6.60;;;21.90;99.90;;;;;;4164576;28;20172;-95
2022/09/30 08:09:19;;;;;;;11.70;6.82;;;22.00;99.90;;;;;;4181177;28;20225;-88
2022/09/30 08:11:21;;;;;;;13.60;7.40;;;21.60;99.90;;;;;;4181228;28;20236;-88
2022/09/30 08:13:21;;;;;;;11.35;6.72;;;22.40;99.90;;;;;;4182969;28;20164;-88
2022/09/30 08:15:22;;;;;;;15.43;6.60;;;22.00;99.90;;;;;;4185386;28;20214;-89
2022/09/30 08:17:22;;;;;;;12.20;5.82;;;21.60;99.90;;;;;;4169652;28;20215;-88
2022/09/30 08:19:25;;;;;;;9.88;6.05;;;22.00;99.90;;;;;;4168384;28;20588;-88
2022/09/30 08:21:27;;;;;;;10.25;5.65;;;21.70;99.90;;;;;;4184828;28;20362;-89
2022/09/30 08:23:28;;;;;;;12.43;5.90;;;21.40;99.90;;;;;;4184499;28;20167;-88
2022/09/30 08:25:29;;;;;;;14.13;5.97;;;22.40;99.90;;;;;;4184938;28;20234;-89
2022/09/30 08:27:29;;;;;;;11.13;6.18;;;21.90;99.90;;;;;;4168162;28;20657;-88
2022/09/30 08:29:30;;;;;;;12.88;6.07;;;21.30;99.90;;;;;;4184465;28;20200;-89
2022/09/30 08:31:32;;;;;;;12.43;5.93;;;21.10;99.90;;;;;;4184310;28;20636;-89
2022/09/30 08:33:33;;;;;;;12.10;6.13;;;20.90;99.90;;;;;;4167724;28;20176;-94
2022/09/30 08:35:35;;;;;;;10.30;5.30;;;22.10;99.90;;;;;;4184116;28;20170;-88
2022/09/30 08:37:36;;;;;;;10.93;5.28;;;22.50;99.90;;;;;;4167771;28;20267;-93
2022/09/30 08:39:37;;;;;;;11.65;5.20;;;22.40;99.90;;;;;;4184249;28;20199;-94
2022/09/30 08:41:38;;;;;;;11.63;5.40;;;22.60;99.90;;;;;;4167282;28;20167;-88
2022/09/30 08:44:22;;;;;;;8.75;5.05;;;23.20;99.90;;;;;;4184428;28;20270;-89
2022/09/30 08:46:26;;;;;;;8.77;5.30;;;22.40;99.90;;;;;;4169483;28;20279;-89
2022/09/30 08:49:20;;;;;;;8.73;5.30;;;21.90;99.90;;;;;;4183865;28;20186;-89
2022/09/30 08:51:42;;;;;;;10.65;4.70;;;22.50;99.90;;;;;;4118992;28;20209;-89
2022/09/30 08:53:46;;;;;;;14.05;5.45;;;21.60;99.90;;;;;;4158927;28;20587;-94
2022/09/30 08:55:47;;;;;;;12.77;5.57;;;21.30;99.90;;;;;;4184040;28;20183;-88
2022/09/30 08:57:48;;;;;;;10.23;5.05;;;21.70;99.90;;;;;;4184141;28;20278;-94
2022/09/30 08:59:58;;;;;;;8.70;4.80;;;21.40;99.90;;;;;;4166948;28;20378;-91
2022/09/30 09:02:19;;;;;;;6.32;4.60;;;21.40;99.90;;;;;;4183954;28;20187;-88
2022/09/30 09:04:20;;;;;;;11.50;4.70;;;22.10;99.90;;;;;;4183987;28;20246;-89
2022/09/30 09:06:36;;;;;;;9.73;5.32;;;21.60;99.90;;;;;;4184016;28;20270;-89
2022/09/30 09:09:21;;;;;;;10.38;5.07;;;22.30;99.90;;;;;;4167202;28;20199;-89
2022/09/30 09:11:46;;;;;;;12.95;5.25;;;21.90;99.90;;;;;;4183163;28;20270;-88
2022/09/30 09:13:52;;;;;;;13.55;5.05;;;22.10;99.90;;;;;;4183610;28;20180;-90
2022/09/30 09:15:58;;;;;;;10.88;4.88;;;22.10;99.90;;;;;;4183717;28;20636;-93
2022/09/30 09:18:17;;;;;;;8.05;4.10;;;22.60;99.90;;;;;;4184138;28;20184;-89
2022/09/30 09:20:22;;;;;;;8.07;4.45;;;23.00;99.90;;;;;;4187149;28;20683;-94
2022/09/30 09:22:25;;;;;;;8.05;4.25;;;23.50;99.90;;;;;;4187557;28;20231;-96
2022/09/30 09:24:41;;;;;;;6.32;4.53;;;22.30;99.90;;;;;;4187355;28;20198;-92
2022/09/30 09:26:43;;;;;;;7.05;4.45;;;21.70;99.90;;;;;;4188136;28;20195;-90
2022/09/30 09:29:05;;;;;;;8.10;4.68;;;20.70;99.90;;;;;;4187378;28;20194;-91
2022/09/30 09:31:26;;;;;;;9.45;4.72;;;21.00;99.90;;;;;;4190919;28;20187;-90
2022/09/30 09:33:52;;;;;;;7.75;4.82;;;20.60;99.90;;;;;;4191504;28;20170;-96
2022/09/30 09:36:26;;;;;;;13.30;4.68;;;20.50;99.90;;;;;;4188581;28;20244;-94
2022/09/30 09:38:34;;;;;;;9.55;3.92;;;20.50;99.90;;;;;;4189490;28;20274;-90
2022/09/30 09:41:12;;;;;;;6.32;4.05;;;20.60;99.90;;;;;;4185555;28;20245;-94
2022/09/30 09:43:18;;;;;;;9.05;4.18;;;21.60;99.90;;;;;;4187094;28;20179;-88
2022/09/30 09:45:53;;;;;;;7.53;3.80;;;20.70;99.90;;;;;;4186687;28;20678;-89
2022/09/30 09:47:58;;;;;;;10.13;3.88;;;20.40;99.90;;;;;;4152055;28;20184;-88
2022/09/30 09:50:03;;;;;;;8.52;3.97;;;19.80;99.90;;;;;;4184401;28;20192;-94
2022/09/30 09:52:10;;;;;;;10.43;4.45;;;19.40;99.90;;;;;;4187238;28;20198;-89
2022/09/30 09:54:14;;;;;;;9.18;4.85;;;19.00;99.90;;;;;;4173713;28;20176;-90
2022/09/30 09:56:41;;;;;;;8.90;4.28;;;18.90;99.90;;;;;;4205384;28;20174;-90
2022/09/30 09:59:13;;;;;;;8.05;3.92;;;18.80;99.90;;;;;;4192851;28;20160;-91
2022/09/30 10:01:40;;;;;;;11.63;4.25;;;18.40;99.90;;;;;;4178009;28;20195;-90
2022/09/30 10:03:41;;;;;;;6.38;3.90;;;18.20;99.90;;;;;;4175816;28;20180;-92
2022/09/30 10:05:42;;;;;;;9.00;3.95;;;18.20;99.90;;;;;;4176518;28;20271;-91
2022/09/30 10:07:43;;;;;;;8.77;3.90;;;18.00;99.90;;;;;;4175773;28;20184;-90
2022/09/30 10:09:43;;;;;;;7.53;3.78;;;18.00;99.90;;;;;;4175563;28;20291;-89
2022/09/30 10:11:44;;;;;;;10.00;4.55;;;17.90;99.90;;;;;;4177014;28;20333;-94
2022/09/30 10:13:46;;;;;;;10.02;4.90;;;18.00;99.90;;;;;;4194252;28;20680;-92
2022/09/30 10:15:52;;;;;;;12.95;4.78;;;18.30;99.90;;;;;;4196434;28;20176;-96
2022/09/30 10:17:59;;;;;;;7.30;4.45;;;18.30;99.90;;;;;;4191118;28;20164;-93
2022/09/30 10:20:15;;;;;;;13.63;4.95;;;18.20;99.90;;;;;;4186294;28;20198;-96
2022/09/30 10:22:16;;;;;;;13.45;4.60;;;17.80;99.90;;;;;;4182519;28;20604;-90
2022/09/30 10:24:29;;;;;;;7.85;4.40;;;17.80;99.90;;;;;;4166542;28;20212;-90
2022/09/30 10:26:43;;;;;;;8.65;4.38;;;17.80;99.90;;;;;;4185794;28;20258;-96
2022/09/30 10:28:49;;;;;;;10.00;4.20;;;17.80;99.90;;;;;;4185328;28;20179;-94
2022/09/30 10:30:53;;;;;;;6.90;4.15;;;18.00;99.90;;;;;;4182354;28;20695;-94
2022/09/30 10:32:54;;;;;;;10.45;4.15;;;17.90;99.90;;;;;;4182079;28;20525;-95
2022/09/30 10:35:04;;;;;;;9.35;3.65;;;18.10;99.90;;;;;;4182228;28;20186;-95
2022/09/30 10:37:18;;;;;;;10.88;4.13;;;18.00;99.90;;;;;;4182001;28;20174;-95
2022/09/30 10:39:27;;;;;;;9.98;3.60;;;17.80;99.90;;;;;;4182399;28;20236;-92
2022/09/30 10:41:31;;;;;;;7.70;4.00;;;18.10;99.90;;;;;;4183188;28;20175;-90
2022/09/30 10:43:59;;;;;;;10.82;4.03;;;18.10;99.90;;;;;;4166150;28;20644;-95
2022/09/30 10:46:02;;;;;;;13.38;3.60;;;18.00;99.90;;;;;;4167929;28;20198;-96
2022/09/30 10:48:12;;;;;;;9.27;3.63;;;18.00;99.90;;;;;;4185835;28;20221;-95
2022/09/30 10:50:16;;;;;;;10.38;3.40;;;17.90;99.90;;;;;;4183333;28;20183;-91
2022/09/30 10:52:29;;;;;;;7.93;3.83;;;18.00;99.90;;;;;;4184606;28;20187;-91
2022/09/30 10:54:53;;;;;;;6.95;3.22;;;18.10;99.90;;;;;;4167636;28;20168;-96
2022/09/30 10:56:54;;;;;;;5.85;3.47;;;18.10;99.90;;;;;;4168148;28;20176;-92